createdAt,value
2023-03-26T00:01:29.697Z,8.44
2023-03-26T00:03:58.028Z,8.38
2023-03-26T00:06:31.301Z,8.30
2023-03-26T00:08:58.497Z,8.27
2023-03-26T00:11:27.447Z,8.22
2023-03-26T00:13:57.750Z,8.17
2023-03-26T00:16:28.845Z,8.09
2023-03-26T00:18:57.520Z,8.01
2023-03-26T00:21:28.200Z,8.08
2023-03-26T00:23:58.480Z,8.15
2023-03-26T00:26:27.108Z,8.17
2023-03-26T00:28:54.521Z,8.25
2023-03-26T00:31:22.292Z,8.22
2023-03-26T00:33:54.289Z,8.21
2023-03-26T00:36:25.376Z,8.10
2023-03-26T00:38:53.924Z,7.98
2023-03-26T00:41:25.878Z,7.99
2023-03-26T00:43:58.815Z,8.02
2023-03-26T00:46:28.497Z,7.99
2023-03-26T00:48:58.864Z,7.97
2023-03-26T00:51:27.713Z,7.97
2023-03-26T00:53:55.778Z,7.89
2023-03-26T00:56:23.223Z,7.82
2023-03-26T00:58:50.420Z,7.75
2023-03-26T01:01:27.292Z,7.72
2023-03-26T01:04:08.295Z,7.61
2023-03-26T01:06:42.327Z,7.54
2023-03-26T01:09:21.511Z,7.54
2023-03-26T01:11:49.865Z,7.41
2023-03-26T01:14:25.309Z,7.45
2023-03-26T01:16:58.426Z,7.42
2023-03-26T01:19:38.206Z,7.45
2023-03-26T01:22:09.606Z,7.41
2023-03-26T01:24:37.870Z,7.41
2023-03-26T01:27:09.560Z,7.37
2023-03-26T01:29:42.880Z,7.20
2023-03-26T01:32:17.684Z,7.18
2023-03-26T01:35:19.075Z,7.27
2023-03-26T01:38:18.495Z,7.28
2023-03-26T01:40:54.762Z,7.24
2023-03-26T01:43:44.391Z,7.30
2023-03-26T01:46:14.691Z,7.27
2023-03-26T01:48:46.823Z,7.21
2023-03-26T01:51:25.120Z,7.12
2023-03-26T01:53:53.410Z,7.10
2023-03-26T01:56:35.915Z,6.99
2023-03-26T01:59:21.339Z,6.97
2023-03-26T02:02:11.735Z,6.92
2023-03-26T02:05:00.336Z,6.87
2023-03-26T02:07:52.963Z,6.82
2023-03-26T02:10:29.702Z,6.71
2023-03-26T02:12:59.014Z,6.73
2023-03-26T02:15:26.245Z,6.63
2023-03-26T02:17:54.077Z,6.69
2023-03-26T02:20:21.654Z,6.69
2023-03-26T02:22:48.957Z,6.78
2023-03-26T02:25:21.245Z,6.95
2023-03-26T02:27:52.431Z,6.81
2023-03-26T02:30:26.049Z,6.76
2023-03-26T02:32:59.246Z,6.93
2023-03-26T02:35:31.398Z,7.04
2023-03-26T02:38:01.160Z,6.89
2023-03-26T02:40:28.558Z,6.82
2023-03-26T02:42:56.397Z,6.88
2023-03-26T02:45:24.333Z,6.89
2023-03-26T02:48:09.971Z,6.74
2023-03-26T02:51:03.060Z,6.74
2023-03-26T02:53:41.995Z,6.91
2023-03-26T02:56:35.315Z,6.87
2023-03-26T02:59:25.307Z,6.73
2023-03-26T03:02:13.403Z,6.68
2023-03-26T03:04:41.058Z,6.59
2023-03-26T03:07:08.222Z,6.58
2023-03-26T03:09:35.518Z,6.56
2023-03-26T03:12:25.283Z,6.67
2023-03-26T03:14:52.553Z,6.68
2023-03-26T03:17:20.891Z,6.54
2023-03-26T03:19:48.203Z,6.49
2023-03-26T03:22:16.244Z,6.49
2023-03-26T03:24:43.793Z,6.39
2023-03-26T03:27:10.960Z,6.37
2023-03-26T03:29:42.824Z,6.36
2023-03-26T03:32:28.478Z,6.30
2023-03-26T03:35:00.402Z,6.27
2023-03-26T03:37:27.696Z,6.24
2023-03-26T03:39:56.220Z,6.24
2023-03-26T03:42:27.405Z,6.18
2023-03-26T03:44:57.224Z,6.17
2023-03-26T03:47:43.054Z,6.10
2023-03-26T03:50:11.794Z,6.17
2023-03-26T03:52:47.313Z,6.21
2023-03-26T03:55:17.292Z,6.18
2023-03-26T03:57:52.456Z,6.15
2023-03-26T04:00:22.587Z,6.15
2023-03-26T04:03:06.489Z,6.15
2023-03-26T04:05:34.593Z,6.12
2023-03-26T04:08:01.903Z,6.11
2023-03-26T04:10:28.933Z,6.10
2023-03-26T04:13:05.286Z,6.09
2023-03-26T04:15:48.535Z,6.08
2023-03-26T04:18:15.820Z,6.06
2023-03-26T04:20:49.324Z,5.99
2023-03-26T04:23:23.213Z,6.02
2023-03-26T04:26:03.397Z,6.01
2023-03-26T04:28:54.721Z,6.11
2023-03-26T04:31:30.769Z,6.06
2023-03-26T04:34:06.220Z,6.05
2023-03-26T04:36:40.646Z,6.04
2023-03-26T04:39:11.697Z,6.03
2023-03-26T04:42:14.313Z,6.10
2023-03-26T04:44:55.854Z,6.03
2023-03-26T04:47:23.534Z,6.00
2023-03-26T04:49:50.926Z,5.96
2023-03-26T04:52:18.761Z,5.94
2023-03-26T04:54:58.350Z,5.94
2023-03-26T04:57:32.624Z,5.93
2023-03-26T05:00:19.561Z,5.90
2023-03-26T05:02:57.817Z,5.90
2023-03-26T05:05:26.960Z,5.92
2023-03-26T05:07:55.267Z,5.88
2023-03-26T05:10:23.832Z,5.90
2023-03-26T05:12:56.391Z,5.84
2023-03-26T05:15:27.211Z,5.74
2023-03-26T05:17:55.522Z,5.70
2023-03-26T05:20:34.311Z,5.67
2023-03-26T05:23:03.288Z,5.55
2023-03-26T05:25:34.802Z,5.50
2023-03-26T05:28:03.772Z,5.47
2023-03-26T05:30:38.906Z,5.58
2023-03-26T05:33:06.626Z,5.56
2023-03-26T05:35:45.275Z,5.56
2023-03-26T05:38:12.837Z,5.60
2023-03-26T05:40:39.970Z,5.66
2023-03-26T05:43:08.252Z,5.67
2023-03-26T05:45:35.313Z,5.73
2023-03-26T05:48:15.646Z,5.83
2023-03-26T05:50:42.983Z,5.84
2023-03-26T05:53:10.258Z,5.89
2023-03-26T05:55:59.351Z,5.91
2023-03-26T05:58:45.002Z,5.95
2023-03-26T06:01:44.615Z,6.08
2023-03-26T06:04:16.147Z,6.29
2023-03-26T06:06:57.729Z,6.56
2023-03-26T06:09:25.828Z,6.58
2023-03-26T06:11:52.987Z,6.78
2023-03-26T06:14:20.767Z,6.96
2023-03-26T06:17:15.392Z,7.12
2023-03-26T06:20:00.982Z,7.34
2023-03-26T06:22:40.458Z,7.61
2023-03-26T06:25:19.289Z,7.87
2023-03-26T06:28:16.262Z,8.21
2023-03-26T06:30:49.676Z,8.61
2023-03-26T06:33:30.450Z,8.75
2023-03-26T06:35:59.646Z,9.00
2023-03-26T06:38:27.031Z,9.20
2023-03-26T06:40:54.793Z,9.24
2023-03-26T06:43:25.394Z,9.36
2023-03-26T06:46:21.352Z,9.42
2023-03-26T06:49:07.099Z,9.48
2023-03-26T06:51:53.452Z,9.55
2023-03-26T06:54:39.150Z,9.59
2023-03-26T06:57:48.697Z,9.54
2023-03-26T07:00:42.315Z,9.82
2023-03-26T07:03:38.978Z,9.93
2023-03-26T07:06:24.886Z,10.06
2023-03-26T07:09:12.026Z,10.18
2023-03-26T07:11:59.167Z,10.08
2023-03-26T07:14:44.935Z,10.17
2023-03-26T07:17:35.173Z,10.22
2023-03-26T07:20:13.211Z,10.14
2023-03-26T07:22:42.071Z,10.12
2023-03-26T07:25:28.059Z,10.15
2023-03-26T07:28:32.834Z,10.23
2023-03-26T07:31:46.081Z,10.36
2023-03-26T07:35:03.298Z,10.54
2023-03-26T07:37:57.103Z,10.55
2023-03-26T07:40:54.956Z,10.76
2023-03-26T07:43:52.012Z,10.82
2023-03-26T07:46:34.858Z,11.03
2023-03-26T07:49:21.840Z,11.25
2023-03-26T07:52:25.932Z,11.47
2023-03-26T07:55:14.981Z,11.57
2023-03-26T07:58:18.977Z,11.70
2023-03-26T08:01:25.139Z,11.90
2023-03-26T08:04:23.574Z,12.04
2023-03-26T08:07:45.124Z,12.20
2023-03-26T08:10:23.216Z,12.48
2023-03-26T08:13:28.071Z,12.43
2023-03-26T08:16:01.360Z,12.57
2023-03-26T08:18:50.196Z,12.97
2023-03-26T08:21:34.863Z,13.10
2023-03-26T08:24:34.231Z,13.03
2023-03-26T08:27:13.456Z,13.28
2023-03-26T08:29:45.149Z,13.39
2023-03-26T08:32:19.038Z,13.52
2023-03-26T08:34:46.779Z,13.46
2023-03-26T08:37:14.644Z,13.50
2023-03-26T08:39:42.363Z,13.72
2023-03-26T08:42:21.305Z,14.04
2023-03-26T08:45:30.015Z,14.22
2023-03-26T08:48:06.637Z,14.18
2023-03-26T08:50:46.304Z,14.32
2023-03-26T08:53:13.637Z,14.52
2023-03-26T08:56:01.592Z,14.87
2023-03-26T08:58:50.638Z,14.89
2023-03-26T09:01:20.526Z,15.06
2023-03-26T09:04:24.648Z,15.07
2023-03-26T09:07:06.837Z,15.14
2023-03-26T09:10:02.867Z,15.47
2023-03-26T09:12:51.351Z,15.65
2023-03-26T09:15:42.366Z,15.53
2023-03-26T09:18:18.526Z,15.68
2023-03-26T09:20:54.767Z,15.98
2023-03-26T09:23:36.406Z,16.14
2023-03-26T09:26:26.120Z,16.31
2023-03-26T09:29:14.941Z,16.54
2023-03-26T09:32:17.025Z,16.56
2023-03-26T09:34:50.086Z,16.63
2023-03-26T09:37:56.891Z,16.65
2023-03-26T09:41:05.484Z,17.09
2023-03-26T09:43:36.746Z,17.05
2023-03-26T09:46:35.975Z,17.30
2023-03-26T09:49:26.924Z,17.53
2023-03-26T09:52:13.593Z,17.71
2023-03-26T09:54:49.990Z,17.99
2023-03-26T09:57:45.217Z,18.32
2023-03-26T10:00:28.371Z,18.42
2023-03-26T10:03:26.410Z,18.24
2023-03-26T10:06:11.923Z,18.62
2023-03-26T10:08:50.404Z,18.99
2023-03-26T10:11:38.110Z,19.27
2023-03-26T10:14:29.430Z,19.29
2023-03-26T10:17:21.715Z,19.02
2023-03-26T10:19:52.320Z,19.24
2023-03-26T10:22:27.335Z,19.37
2023-03-26T10:25:12.831Z,19.79
2023-03-26T10:27:46.146Z,20.05
2023-03-26T10:30:15.968Z,19.39
2023-03-26T10:33:02.904Z,19.68
2023-03-26T10:35:39.794Z,20.23
2023-03-26T10:38:18.317Z,20.86
2023-03-26T10:40:58.477Z,20.67
2023-03-26T10:44:07.486Z,20.34
2023-03-26T10:46:52.581Z,20.48
2023-03-26T10:49:25.809Z,20.42
2023-03-26T10:51:55.865Z,19.97
2023-03-26T10:54:47.405Z,20.16
2023-03-26T10:57:23.312Z,20.24
2023-03-26T10:59:53.997Z,20.22
2023-03-26T11:02:29.597Z,20.82
2023-03-26T11:05:07.064Z,20.90
2023-03-26T11:07:44.028Z,20.79
2023-03-26T11:10:16.880Z,20.93
2023-03-26T11:12:55.735Z,21.08
2023-03-26T11:15:31.337Z,21.03
2023-03-26T11:17:58.419Z,21.16
2023-03-26T11:20:44.176Z,21.35
2023-03-26T11:23:36.127Z,21.52
2023-03-26T11:26:06.306Z,21.18
2023-03-26T11:29:03.077Z,21.18
2023-03-26T11:31:32.001Z,20.47
2023-03-26T11:34:06.269Z,20.21
2023-03-26T11:36:39.589Z,19.90
2023-03-26T11:39:13.897Z,19.50
2023-03-26T11:41:41.287Z,19.83
2023-03-26T11:44:28.235Z,20.29
2023-03-26T11:47:01.192Z,20.59
2023-03-26T11:49:29.497Z,20.68
2023-03-26T11:51:56.711Z,20.58
2023-03-26T11:54:23.810Z,20.62
2023-03-26T11:57:05.805Z,20.83
2023-03-26T11:59:57.132Z,21.23
2023-03-26T12:02:38.597Z,21.61
2023-03-26T12:05:29.440Z,21.79
2023-03-26T12:08:00.426Z,21.90
2023-03-26T12:10:35.058Z,21.90
2023-03-26T12:13:26.506Z,22.09
2023-03-26T12:15:59.387Z,22.04
2023-03-26T12:18:28.258Z,22.17
2023-03-26T12:21:10.601Z,22.19
2023-03-26T12:23:45.486Z,21.63
2023-03-26T12:26:18.766Z,21.62
2023-03-26T12:28:47.369Z,21.68
2023-03-26T12:31:19.681Z,22.00
2023-03-26T12:34:16.707Z,22.17
2023-03-26T12:36:59.999Z,21.83
2023-03-26T12:40:08.087Z,22.16
2023-03-26T12:44:51.383Z,22.49
2023-03-26T12:45:14.398Z,22.50
2023-03-26T12:47:57.825Z,22.36
2023-03-26T12:50:57.609Z,22.06
2023-03-26T12:53:37.601Z,21.45
2023-03-26T12:56:27.205Z,21.90
2023-03-26T12:59:18.604Z,21.60
2023-03-26T13:02:13.996Z,21.47
2023-03-26T13:05:07.071Z,21.86
2023-03-26T13:07:48.737Z,22.24
2023-03-26T13:10:37.129Z,22.16
2023-03-26T13:13:10.004Z,22.39
2023-03-26T13:15:43.302Z,22.86
2023-03-26T13:18:48.950Z,23.20
2023-03-26T13:21:37.927Z,23.21
2023-03-26T13:24:22.958Z,22.73
2023-03-26T13:27:04.257Z,22.05
2023-03-26T13:29:49.832Z,22.19
2023-03-26T13:32:22.867Z,22.71
2023-03-26T13:35:17.818Z,23.18
2023-03-26T13:38:00.979Z,22.96
2023-03-26T13:41:14.507Z,22.39
2023-03-26T13:43:58.000Z,22.20
2023-03-26T13:46:48.858Z,21.91
2023-03-26T13:49:29.282Z,21.54
2023-03-26T13:52:01.754Z,21.58
2023-03-26T13:54:35.827Z,20.96
2023-03-26T13:57:31.832Z,20.98
2023-03-26T14:02:57.416Z,21.26
2023-03-26T14:05:33.363Z,21.04
2023-03-26T14:08:04.364Z,20.91
2023-03-26T14:10:42.995Z,21.21
2023-03-26T14:13:15.626Z,21.37
2023-03-26T14:16:21.066Z,21.47
2023-03-26T14:18:56.176Z,21.46
2023-03-26T14:22:02.063Z,21.24
2023-03-26T14:25:04.541Z,21.16
2023-03-26T14:27:40.525Z,21.02
2023-03-26T14:30:28.190Z,20.39
2023-03-26T14:33:11.308Z,20.37
2023-03-26T14:36:07.095Z,20.20
2023-03-26T14:38:52.176Z,20.18
2023-03-26T14:41:28.926Z,20.85
2023-03-26T14:44:24.000Z,21.46
2023-03-26T14:47:01.673Z,22.91
2023-03-26T14:50:03.405Z,25.15
2023-03-26T14:52:50.893Z,25.55
2023-03-26T14:55:30.114Z,26.15
2023-03-26T14:58:08.075Z,25.92
2023-03-26T15:01:04.056Z,26.67
2023-03-26T15:03:48.851Z,25.01
2023-03-26T15:06:34.142Z,24.02
2023-03-26T15:09:26.351Z,23.03
2023-03-26T15:12:21.167Z,24.00
2023-03-26T15:15:13.182Z,23.49
2023-03-26T15:17:49.445Z,22.47
2023-03-26T15:21:00.290Z,21.64
2023-03-26T15:23:58.566Z,21.73
2023-03-26T15:26:44.150Z,21.07
2023-03-26T15:29:40.247Z,20.75
2023-03-26T15:32:30.068Z,21.36
2023-03-26T15:35:34.680Z,21.45
2023-03-26T15:38:10.608Z,21.87
2023-03-26T15:40:44.705Z,22.19
2023-03-26T15:43:11.828Z,21.84
2023-03-26T15:45:49.733Z,20.95
2023-03-26T15:48:25.829Z,20.66
2023-03-26T15:50:54.441Z,20.21
2023-03-26T15:53:48.935Z,19.64
2023-03-26T15:56:40.293Z,19.29
2023-03-26T15:59:38.199Z,19.10
2023-03-26T16:02:38.964Z,18.62
2023-03-26T16:05:44.744Z,18.51
2023-03-26T16:08:38.761Z,18.39
2023-03-26T16:11:12.466Z,18.18
2023-03-26T16:13:39.906Z,18.15
2023-03-26T16:16:19.882Z,18.09
2023-03-26T16:18:58.469Z,17.94
2023-03-26T16:21:32.820Z,17.65
2023-03-26T16:24:03.063Z,17.61
2023-03-26T16:26:48.791Z,17.43
2023-03-26T16:29:26.794Z,17.36
2023-03-26T16:32:15.795Z,17.10
2023-03-26T16:34:57.951Z,17.06
2023-03-26T16:37:50.571Z,16.95
2023-03-26T16:40:17.820Z,16.61
2023-03-26T16:43:11.725Z,16.47
2023-03-26T16:45:49.149Z,15.87
2023-03-26T16:48:51.341Z,15.31
2023-03-26T16:51:31.902Z,14.85
2023-03-26T16:54:23.251Z,14.49
2023-03-26T16:57:16.173Z,14.07
2023-03-26T17:00:06.187Z,13.87
2023-03-26T17:03:16.003Z,13.66
2023-03-26T17:05:58.041Z,13.70
2023-03-26T17:08:43.396Z,13.44
2023-03-26T17:11:36.717Z,13.31
2023-03-26T17:14:24.858Z,13.16
2023-03-26T17:17:22.530Z,13.08
2023-03-26T17:20:19.163Z,13.00
2023-03-26T17:22:51.697Z,12.96
2023-03-26T17:26:02.935Z,12.79
2023-03-26T17:28:50.522Z,12.75
2023-03-26T17:31:40.139Z,12.83
2023-03-26T17:34:33.172Z,12.65
2023-03-26T17:37:03.161Z,12.57
2023-03-26T17:39:50.420Z,12.53
2023-03-26T17:42:27.413Z,12.43
2023-03-26T17:44:59.220Z,12.27
2023-03-26T17:47:26.383Z,11.74
2023-03-26T17:50:20.206Z,11.32
2023-03-26T17:53:01.235Z,10.96
2023-03-26T17:55:31.635Z,10.76
2023-03-26T17:58:03.451Z,10.64
2023-03-26T18:00:41.301Z,10.46
2023-03-26T18:03:08.398Z,10.34
2023-03-26T18:05:39.402Z,10.40
2023-03-26T18:08:41.391Z,10.26
2023-03-26T18:11:36.970Z,10.29
2023-03-26T18:14:29.762Z,10.21
2023-03-26T18:16:59.866Z,10.10
2023-03-26T18:19:27.537Z,10.02
2023-03-26T18:21:58.943Z,10.00
2023-03-26T18:24:37.444Z,9.89
2023-03-26T18:27:08.481Z,9.91
2023-03-26T18:29:37.831Z,9.97
2023-03-26T18:32:11.307Z,9.94
2023-03-26T18:34:46.625Z,9.90
2023-03-26T18:37:19.567Z,10.07
2023-03-26T18:39:59.061Z,9.85
2023-03-26T18:42:28.350Z,9.93
2023-03-26T18:44:59.930Z,9.94
2023-03-26T18:47:31.046Z,9.86
2023-03-26T18:49:59.065Z,9.85
2023-03-26T18:52:29.829Z,9.91
2023-03-26T18:54:59.049Z,9.79
2023-03-26T18:57:28.401Z,9.68
2023-03-26T19:00:08.820Z,9.66
2023-03-26T19:02:36.629Z,9.70
2023-03-26T19:05:04.172Z,9.76
2023-03-26T19:07:31.615Z,9.74
2023-03-26T19:10:00.348Z,9.78
2023-03-26T19:12:33.123Z,9.72
2023-03-26T19:15:17.254Z,9.72
2023-03-26T19:17:47.763Z,9.76
2023-03-26T19:20:27.712Z,9.74
2023-03-26T19:22:56.861Z,9.74
2023-03-26T19:25:31.355Z,9.66
2023-03-26T19:27:59.214Z,9.64
2023-03-26T19:30:32.782Z,9.59
2023-03-26T19:33:13.265Z,9.57
2023-03-26T19:35:42.396Z,9.48
2023-03-26T19:38:29.994Z,9.41
2023-03-26T19:40:58.100Z,9.40
2023-03-26T19:43:26.234Z,9.28
2023-03-26T19:46:00.029Z,9.24
2023-03-26T19:48:46.665Z,9.21
2023-03-26T19:51:37.122Z,9.24
2023-03-26T19:54:14.614Z,9.12
2023-03-26T19:56:43.421Z,9.01
2023-03-26T19:59:10.664Z,8.94
2023-03-26T20:01:37.855Z,8.88
2023-03-26T20:04:06.609Z,8.79
2023-03-26T20:06:43.237Z,8.72
2023-03-26T20:09:14.275Z,8.67
2023-03-26T20:11:42.088Z,8.72
2023-03-26T20:14:15.169Z,8.60
2023-03-26T20:16:44.931Z,8.53
2023-03-26T20:19:14.718Z,8.52
2023-03-26T20:21:43.005Z,8.50
2023-03-26T20:24:18.102Z,8.44
2023-03-26T20:26:46.493Z,8.47
2023-03-26T20:29:14.527Z,8.45
2023-03-26T20:31:42.584Z,8.41
2023-03-26T20:34:16.636Z,8.38
2023-03-26T20:36:45.518Z,8.36
2023-03-26T20:39:13.278Z,8.40
2023-03-26T20:41:45.007Z,8.44
2023-03-26T20:44:15.613Z,8.51
2023-03-26T20:46:43.938Z,8.51
2023-03-26T20:49:12.235Z,8.59
2023-03-26T20:51:41.736Z,8.61
2023-03-26T20:54:17.764Z,8.62
2023-03-26T20:56:45.656Z,8.66
2023-03-26T20:59:18.831Z,8.56
2023-03-26T21:01:47.378Z,8.54
2023-03-26T21:04:16.086Z,8.49
2023-03-26T21:06:43.620Z,8.39
2023-03-26T21:09:15.043Z,8.30
2023-03-26T21:12:02.098Z,8.26
2023-03-26T21:14:40.227Z,8.22
2023-03-26T21:17:14.621Z,8.13
2023-03-26T21:19:42.654Z,8.03
2023-03-26T21:22:22.574Z,7.95
2023-03-26T21:24:58.064Z,7.93
2023-03-26T21:27:37.800Z,7.94
2023-03-26T21:30:16.229Z,7.92
2023-03-26T21:32:45.370Z,7.91
2023-03-26T21:35:14.936Z,7.82
2023-03-26T21:37:44.355Z,7.88
2023-03-26T21:40:14.571Z,7.88
2023-03-26T21:42:43.246Z,7.82
2023-03-26T21:45:11.262Z,7.78
2023-03-26T21:47:38.802Z,7.74
2023-03-26T21:50:07.753Z,7.77
2023-03-26T21:52:35.841Z,7.66
2023-03-26T21:55:05.257Z,7.59
2023-03-26T21:57:43.567Z,7.59
2023-03-26T22:00:23.731Z,7.56
2023-03-26T22:03:14.829Z,7.58
2023-03-26T22:06:02.707Z,7.48
2023-03-26T22:08:35.670Z,7.43
2023-03-26T22:11:02.819Z,7.33
2023-03-26T22:13:30.986Z,7.26
2023-03-26T22:15:58.187Z,7.23
2023-03-26T22:18:26.022Z,7.17
2023-03-26T22:20:53.292Z,7.12
2023-03-26T22:23:20.822Z,7.05
2023-03-26T22:25:47.955Z,7.05
2023-03-26T22:28:15.657Z,6.98
2023-03-26T22:30:42.777Z,7.01
2023-03-26T22:33:11.079Z,7.06
2023-03-26T22:35:39.014Z,7.00
2023-03-26T22:38:06.822Z,7.02
2023-03-26T22:40:33.925Z,7.02
2023-03-26T22:43:01.062Z,6.95
2023-03-26T22:45:28.139Z,6.97
2023-03-26T22:48:03.811Z,6.95
2023-03-26T22:50:32.514Z,6.84
2023-03-26T22:52:59.778Z,6.84
2023-03-26T22:55:28.968Z,6.91
2023-03-26T22:57:57.335Z,6.96
2023-03-26T23:00:26.382Z,6.89
2023-03-26T23:02:55.965Z,6.89
2023-03-26T23:05:23.675Z,6.81
2023-03-26T23:07:52.203Z,6.79
2023-03-26T23:10:19.281Z,6.80
2023-03-26T23:12:46.578Z,6.83
2023-03-26T23:15:14.060Z,6.70
2023-03-26T23:17:41.309Z,6.62
2023-03-26T23:20:14.510Z,6.54
2023-03-26T23:22:42.930Z,6.55
2023-03-26T23:25:11.627Z,6.58
2023-03-26T23:27:40.202Z,6.62
2023-03-26T23:30:08.152Z,6.69
2023-03-26T23:32:37.755Z,6.70
2023-03-26T23:35:06.031Z,6.65
2023-03-26T23:37:35.095Z,6.63
2023-03-26T23:40:07.370Z,6.66
2023-03-26T23:42:34.606Z,6.71
2023-03-26T23:45:01.950Z,6.65
2023-03-26T23:47:34.295Z,6.62
2023-03-26T23:50:02.644Z,6.62
2023-03-26T23:52:30.820Z,6.59
2023-03-26T23:55:00.764Z,6.55
2023-03-26T23:57:27.886Z,6.53
2023-03-26T23:59:55.560Z,6.55
